Time;durP1;ratioP1;P1;durP2;ratioP2;P2;SDS_P1;SDS_P2;PMS_P1;PMS_P2;Temp;Humidity;BMP_temperature;BMP_pressure;BME280_temperature;BME280_humidity;BME280_pressure;Samples;Min_cycle;Max_cycle;Signal;HPM_P1;HPM_P2
2021/04/30 00:00:01;;;;;;;19.03;16.97;;;;;;;9.93;69.00;99623.38;5103847;28;20431;-61
2021/04/30 00:02:27;;;;;;;20.30;17.47;;;;;;;10.06;68.76;99629.19;5097142;28;20480;-63
2021/04/30 00:04:53;;;;;;;21.67;19.03;;;;;;;9.84;69.29;99618.97;5082992;28;20459;-62
2021/04/30 00:07:19;;;;;;;21.70;19.20;;;;;;;9.76;70.11;99619.72;5082832;28;20910;-62
2021/04/30 00:09:45;;;;;;;19.50;17.40;;;;;;;9.91;69.56;99617.34;5082387;28;20454;-62
2021/04/30 00:12:12;;;;;;;21.30;18.03;;;;;;;9.77;69.71;99616.03;5081727;28;20503;-62
2021/04/30 00:14:39;;;;;;;21.40;18.13;;;;;;;9.95;69.14;99619.59;5082974;28;20493;-62
2021/04/30 00:17:05;;;;;;;26.13;19.70;;;;;;;9.84;69.90;99621.63;5081569;28;20506;-62
2021/04/30 00:19:31;;;;;;;22.10;19.53;;;;;;;10.08;69.16;99626.38;5083290;28;20478;-63
2021/04/30 00:21:57;;;;;;;22.40;19.77;;;;;;;10.27;68.27;99625.38;5081369;28;20479;-62
2021/04/30 00:24:23;;;;;;;24.70;19.90;;;;;;;10.07;68.63;99630.88;5082896;28;20431;-63
2021/04/30 00:26:49;;;;;;;23.23;20.70;;;;;;;10.27;68.27;99628.88;5081654;28;20479;-63
2021/04/30 00:29:16;;;;;;;23.73;20.87;;;;;;;10.16;68.84;99629.13;5091035;28;20479;-62
2021/04/30 00:31:43;;;;;;;24.40;21.07;;;;;;;10.19;69.06;99639.50;5080919;28;20482;-63
2021/04/30 00:34:09;;;;;;;22.20;19.33;;;;;;;10.03;69.61;99637.50;5082330;28;20478;-63
2021/04/30 00:36:35;;;;;;;23.23;19.90;;;;;;;10.41;68.52;99646.22;5080733;28;20508;-63
2021/04/30 00:39:02;;;;;;;21.90;18.17;;;;;;;10.25;68.90;99646.06;5082239;28;20433;-63
2021/04/30 00:41:28;;;;;;;20.70;17.60;;;;;;;10.00;69.97;99651.19;5081180;28;20475;-62
2021/04/30 00:43:55;;;;;;;20.00;17.90;;;;;;;10.11;69.77;99652.78;5082295;28;20474;-62
2021/04/30 00:46:22;;;;;;;20.37;18.23;;;;;;;10.43;68.76;99654.09;5080924;28;20483;-63
2021/04/30 00:48:48;;;;;;;20.80;18.10;;;;;;;10.06;69.86;99647.06;5082633;28;20440;-63
2021/04/30 00:51:14;;;;;;;22.43;19.13;;;;;;;10.23;69.45;99656.06;5081414;28;20478;-62
2021/04/30 00:53:40;;;;;;;22.53;20.10;;;;;;;10.35;68.87;99657.53;5082032;28;20447;-62
2021/04/30 00:56:07;;;;;;;20.90;18.70;;;;;;;10.43;68.51;99665.59;5080659;28;20509;-62
2021/04/30 00:58:33;;;;;;;19.93;17.53;;;;;;;10.66;68.04;99663.31;5082357;28;20443;-62
2021/04/30 01:00:59;;;;;;;26.77;18.57;;;;;;;10.84;67.73;99665.09;5080778;28;20475;-62
2021/04/30 01:03:26;;;;;;;22.60;19.50;;;;;;;10.82;67.63;99667.09;5081361;28;20949;-62
2021/04/30 01:05:52;;;;;;;21.40;18.57;;;;;;;10.89;67.06;99670.81;5081054;28;20475;-63
2021/04/30 01:08:18;;;;;;;20.47;18.27;;;;;;;10.78;67.62;99677.28;5081772;28;20564;-63
2021/04/30 01:10:44;;;;;;;22.07;18.80;;;;;;;10.53;68.56;99674.38;5080578;28;21243;-63
2021/04/30 01:13:12;;;;;;;21.43;19.23;;;;;;;10.35;69.60;99682.41;5081519;28;20463;-62
2021/04/30 01:15:38;;;;;;;20.47;18.30;;;;;;;10.32;69.78;99680.03;5080290;28;20495;-62
2021/04/30 01:18:05;;;;;;;20.07;17.37;;;;;;;10.78;68.26;99687.97;5081776;28;20952;-63
2021/04/30 01:20:32;;;;;;;22.60;19.23;;;;;;;10.99;67.29;99682.25;5080734;28;20478;-63
2021/04/30 01:22:59;;;;;;;23.63;20.10;;;;;;;11.33;66.36;99689.47;5081863;28;20889;-63
2021/04/30 01:25:27;;;;;;;20.33;18.23;;;;;;;11.59;65.56;99686.72;5080187;28;20956;-63
2021/04/30 01:27:54;;;;;;;19.63;17.53;;;;;;;11.39;65.96;99694.19;5086965;28;20453;-62
2021/04/30 01:30:23;;;;;;;18.93;16.90;;;;;;;11.46;65.60;99694.41;5100575;28;20520;-63
2021/04/30 01:32:50;;;;;;;18.47;16.47;;;;;;;11.18;66.85;99699.06;5080925;28;20495;-63
2021/04/30 01:35:19;;;;;;;18.50;15.97;;;;;;;10.67;68.14;99699.72;5081411;28;20504;-63
2021/04/30 01:37:47;;;;;;;19.00;17.07;;;;;;;10.92;68.04;99706.09;5081039;28;20464;-63
2021/04/30 01:40:15;;;;;;;18.37;16.47;;;;;;;10.91;68.05;99701.75;5080537;28;20863;-63
2021/04/30 01:43:00;;;;;;;18.17;16.27;;;;;;;11.07;67.51;99708.22;5080690;28;20549;-63
2021/04/30 01:45:28;;;;;;;19.97;17.80;;;;;;;11.12;67.38;99709.41;5081068;28;20467;-63
2021/04/30 01:47:54;;;;;;;20.20;16.77;;;;;;;11.17;67.26;99710.78;5081148;28;20439;-61
2021/04/30 01:50:20;;;;;;;21.27;18.53;;;;;;;11.09;67.48;99720.44;5081555;28;20463;-61
2021/04/30 01:52:46;;;;;;;21.43;19.13;;;;;;;11.09;67.81;99728.47;5081273;28;20463;-61
2021/04/30 01:55:14;;;;;;;20.63;18.53;;;;;;;11.44;66.70;99721.31;5079622;28;20514;-62
2021/04/30 01:57:44;;;;;;;21.33;18.20;;;;;;;11.43;66.66;99727.66;5081247;28;20483;-61
2021/04/30 02:00:18;;;;;;;21.30;19.10;;;;;;;11.38;66.59;99723.78;5080678;28;20885;-61
2021/04/30 02:02:45;;;;;;;23.73;18.43;;;;;;;11.49;66.32;99726.16;5101323;28;20480;-61
2021/04/30 02:05:12;;;;;;;22.07;19.30;;;;;;;11.55;66.25;99728.22;5086585;28;20470;-61
2021/04/30 02:07:38;;;;;;;21.83;18.40;;;;;;;11.12;67.45;99732.66;5081458;28;20428;-61
2021/04/30 02:10:07;;;;;;;23.20;20.63;;;;;;;11.12;67.84;99732.66;5079654;28;20470;-62
2021/04/30 02:12:34;;;;;;;21.03;18.83;;;;;;;11.16;67.49;99739.34;5083783;28;20447;-62
2021/04/30 02:15:00;;;;;;;23.10;19.30;;;;;;;11.25;67.44;99738.44;5086185;28;20519;-61
2021/04/30 02:17:30;;;;;;;22.20;19.40;;;;;;;11.40;66.95;99733.31;5080965;28;20475;-61
2021/04/30 02:19:56;;;;;;;25.27;22.50;;;;;;;11.13;67.52;99747.72;5081285;28;20455;-61
2021/04/30 02:22:23;;;;;;;25.07;20.07;;;;;;;11.02;67.97;99747.97;5079827;28;20507;-61
2021/04/30 02:24:49;;;;;;;25.13;20.60;;;;;;;11.05;68.25;99755.69;5081001;28;20547;-61
2021/04/30 02:27:15;;;;;;;24.83;21.20;;;;;;;11.19;67.61;99760.47;5080993;28;20988;-62
2021/04/30 02:29:42;;;;;;;27.47;21.80;;;;;;;11.35;67.26;99756.22;5101447;28;20557;-63
2021/04/30 02:32:08;;;;;;;26.27;21.67;;;;;;;11.40;66.98;99753.91;5084399;28;20483;-62
2021/04/30 02:34:34;;;;;;;26.07;22.83;;;;;;;11.50;66.40;99752.78;5080910;28;20451;-62
2021/04/30 02:37:01;;;;;;;28.80;21.73;;;;;;;11.60;66.37;99750.00;5080295;28;20491;-62
2021/04/30 02:39:27;;;;;;;23.30;20.23;;;;;;;11.64;65.98;99754.03;5080689;28;20455;-63
2021/04/30 02:41:53;;;;;;;28.80;23.20;;;;;;;11.78;65.58;99757.94;5079093;28;20515;-62
2021/04/30 02:44:19;;;;;;;26.57;22.33;;;;;;;11.82;65.25;99766.50;5081192;28;20455;-62
2021/04/30 02:46:46;;;;;;;27.93;23.20;;;;;;;11.91;65.29;99768.25;5079103;28;20475;-63
2021/04/30 02:49:15;;;;;;;26.00;21.70;;;;;;;11.81;65.15;99767.50;5081115;28;20436;-63
2021/04/30 02:51:41;;;;;;;24.20;21.03;;;;;;;11.88;65.06;99768.53;5079744;28;20487;-62
2021/04/30 02:54:07;;;;;;;25.37;21.17;;;;;;;11.90;65.14;99776.44;5080646;28;20451;-63
2021/04/30 02:56:35;;;;;;;24.70;21.00;;;;;;;11.80;65.92;99768.50;5079782;28;20479;-62
2021/04/30 02:59:04;;;;;;;26.43;23.53;;;;;;;11.69;65.91;99773.13;5080355;28;20466;-63
2021/04/30 03:01:30;;;;;;;27.00;22.93;;;;;;;11.94;65.25;99783.16;5080094;28;20535;-64
2021/04/30 03:03:57;;;;;;;27.87;22.30;;;;;;;11.61;66.21;99783.81;5081006;28;20452;-63
2021/04/30 03:06:23;;;;;;;27.97;23.53;;;;;;;11.64;66.27;99774.63;5080369;28;20472;-62
2021/04/30 03:08:52;;;;;;;31.10;23.83;;;;;;;11.60;66.19;99782.13;5082586;28;20452;-62
2021/04/30 03:11:19;;;;;;;28.63;23.57;;;;;;;11.50;66.58;99789.44;5083440;28;20479;-63
2021/04/30 03:13:45;;;;;;;31.93;24.70;;;;;;;11.52;66.52;99800.00;5097724;28;20450;-63
2021/04/30 03:16:11;;;;;;;29.90;23.50;;;;;;;11.39;67.10;99792.38;5102377;28;20485;-63
2021/04/30 03:18:38;;;;;;;30.40;25.03;;;;;;;11.56;66.50;99790.63;5084065;28;20444;-63
2021/04/30 03:21:05;;;;;;;32.03;26.40;;;;;;;11.55;66.74;99787.13;5083168;28;20525;-63
2021/04/30 03:23:31;;;;;;;30.30;24.20;;;;;;;11.47;67.02;99795.97;5083572;28;20460;-62
2021/04/30 03:25:57;;;;;;;32.87;25.80;;;;;;;11.45;67.19;99799.78;5083591;28;20955;-62
2021/04/30 03:28:23;;;;;;;33.50;25.97;;;;;;;11.47;67.18;99795.09;5093776;28;20475;-63
2021/04/30 03:30:50;;;;;;;32.80;25.83;;;;;;;11.41;67.40;99803.78;5103027;28;20508;-62
2021/04/30 03:33:16;;;;;;;36.53;28.33;;;;;;;11.43;67.38;99807.13;5083278;28;20459;-63
2021/04/30 03:35:42;;;;;;;34.83;27.50;;;;;;;11.47;67.12;99804.00;5082389;28;20472;-62
2021/04/30 03:38:09;;;;;;;39.97;29.37;;;;;;;11.54;66.74;99803.34;5083907;28;20502;-62
2021/04/30 03:40:35;;;;;;;38.47;29.07;;;;;;;11.49;67.17;99812.69;5082383;28;20468;-62
2021/04/30 03:43:01;;;;;;;40.60;31.37;;;;;;;11.43;66.77;99809.81;5083422;28;20456;-63
2021/04/30 03:45:28;;;;;;;41.57;30.80;;;;;;;11.42;66.80;99803.63;5091648;28;20467;-62
2021/04/30 03:47:54;;;;;;;41.13;31.73;;;;;;;11.60;66.40;99821.47;5103355;28;20479;-62
2021/04/30 03:50:20;;;;;;;44.97;32.87;;;;;;;11.55;65.94;99821.94;5063282;28;20471;-62
2021/04/30 03:52:46;;;;;;;45.20;32.53;;;;;;;11.83;65.34;99819.06;5063417;28;20480;-62
2021/04/30 03:55:14;;;;;;;46.00;34.00;;;;;;;11.78;65.42;99818.72;5081135;28;20472;-62
2021/04/30 03:57:40;;;;;;;42.20;33.30;;;;;;;11.48;65.99;99824.38;5088101;28;20494;-62
2021/04/30 04:00:07;;;;;;;43.97;33.87;;;;;;;11.59;65.86;99825.13;5085430;28;20468;-63
2021/04/30 04:02:33;;;;;;;42.30;33.40;;;;;;;11.55;65.79;99829.97;5083307;28;20444;-63
2021/04/30 04:04:59;;;;;;;47.40;36.10;;;;;;;11.09;67.04;99838.16;5082778;28;20459;-62
2021/04/30 04:07:26;;;;;;;44.70;33.00;;;;;;;11.40;66.15;99836.88;5092058;28;20507;-61
2021/04/30 04:09:52;;;;;;;43.20;34.17;;;;;;;11.41;66.23;99843.91;5083711;28;20793;-62
2021/04/30 04:12:19;;;;;;;47.17;34.00;;;;;;;11.43;66.01;99842.75;5082406;28;20487;-63
2021/04/30 04:14:45;;;;;;;46.70;33.70;;;;;;;11.36;65.91;99833.66;5082674;28;20456;-63
2021/04/30 04:17:13;;;;;;;41.77;33.57;;;;;;;11.52;65.55;99837.47;5080892;28;20491;-63
2021/04/30 04:19:39;;;;;;;42.50;32.80;;;;;;;11.50;65.37;99837.63;5081649;28;20464;-63
2021/04/30 04:22:05;;;;;;;42.47;32.20;;;;;;;11.41;65.60;99846.59;5079697;28;20502;-62
2021/04/30 04:24:31;;;;;;;41.90;33.53;;;;;;;11.45;64.76;99851.47;5081787;28;20480;-62
2021/04/30 04:26:57;;;;;;;41.33;33.20;;;;;;;11.47;65.36;99851.31;5079814;28;20480;-62
2021/04/30 04:29:24;;;;;;;40.20;32.13;;;;;;;11.39;65.37;99848.59;5101306;28;20487;-63
2021/04/30 04:31:50;;;;;;;41.23;31.57;;;;;;;11.55;64.71;99847.88;5087249;28;20515;-63
2021/04/30 04:34:16;;;;;;;39.03;31.47;;;;;;;11.57;64.51;99848.53;5080264;28;20858;-62
2021/04/30 04:36:43;;;;;;;44.07;33.47;;;;;;;11.57;65.14;99852.06;5080466;28;20491;-62
2021/04/30 04:39:09;;;;;;;43.07;33.70;;;;;;;11.56;64.91;99866.47;5081046;28;20443;-63
2021/04/30 04:41:36;;;;;;;46.70;32.57;;;;;;;11.39;65.33;99865.50;5080267;28;20483;-63
2021/04/30 04:44:02;;;;;;;42.87;32.20;;;;;;;11.61;64.67;99874.00;5085754;28;20506;-62
2021/04/30 04:46:29;;;;;;;43.23;33.10;;;;;;;11.65;64.62;99873.53;5092153;28;20832;-63
2021/04/30 04:48:55;;;;;;;41.90;32.40;;;;;;;11.51;64.55;99879.47;5080763;28;20452;-62
2021/04/30 04:51:21;;;;;;;38.23;31.53;;;;;;;11.48;64.69;99879.78;5080090;28;20506;-62
2021/04/30 04:53:47;;;;;;;40.13;32.37;;;;;;;11.45;65.07;99882.75;5081087;28;20455;-63
2021/04/30 04:56:14;;;;;;;37.17;30.43;;;;;;;11.12;65.54;99888.66;5080824;28;20479;-62
2021/04/30 04:58:40;;;;;;;36.60;31.17;;;;;;;11.46;65.12;99890.63;5079964;28;20448;-61
2021/04/30 05:01:06;;;;;;;40.60;30.87;;;;;;;11.69;64.52;99887.44;5080426;28;20580;-62
2021/04/30 05:03:33;;;;;;;36.67;30.30;;;;;;;11.82;63.61;99893.25;5080860;28;20452;-62
2021/04/30 05:05:59;;;;;;;37.40;31.13;;;;;;;11.61;64.60;99887.38;5078207;28;20481;-61
2021/04/30 05:08:25;;;;;;;40.60;31.90;;;;;;;11.60;64.74;99896.44;5082387;28;20501;-60
2021/04/30 05:10:52;;;;;;;39.80;31.40;;;;;;;11.91;63.69;99887.94;5097185;28;20474;-62
2021/04/30 05:13:18;;;;;;;43.80;29.10;;;;;;;11.98;63.55;99894.38;5089702;28;20454;-62
2021/04/30 05:15:44;;;;;;;35.43;30.50;;;;;;;11.99;62.98;99907.59;5094006;28;20536;-61
2021/04/30 05:18:10;;;;;;;34.93;29.23;;;;;;;12.13;62.99;99913.38;5080428;28;20985;-60
2021/04/30 05:20:37;;;;;;;36.90;28.73;;;;;;;11.84;63.16;99914.53;5078669;28;20491;-62
2021/04/30 05:23:03;;;;;;;33.90;28.10;;;;;;;11.98;62.79;99907.78;5080106;28;20452;-60
2021/04/30 05:25:29;;;;;;;33.30;27.90;;;;;;;12.10;62.39;99919.03;5079130;28;20494;-61
2021/04/30 05:27:56;;;;;;;34.73;28.40;;;;;;;11.80;63.21;99919.31;5079947;28;20462;-61
2021/04/30 05:30:22;;;;;;;35.37;28.87;;;;;;;11.91;63.01;99926.31;5092036;28;20506;-61
2021/04/30 05:32:48;;;;;;;34.97;28.80;;;;;;;11.54;64.25;99924.66;5098993;28;20485;-62
2021/04/30 05:35:15;;;;;;;38.47;29.70;;;;;;;11.68;63.72;99923.25;5099105;28;20451;-62
2021/04/30 05:37:42;;;;;;;35.90;30.00;;;;;;;11.39;63.71;99918.19;5100524;28;20450;-61
2021/04/30 05:40:09;;;;;;;34.37;29.20;;;;;;;11.53;63.06;99920.31;5099628;28;20443;-62
2021/04/30 05:42:35;;;;;;;35.23;27.77;;;;;;;11.83;62.48;99907.47;5098765;28;20443;-61
2021/04/30 05:45:01;;;;;;;37.20;30.40;;;;;;;11.82;62.28;99916.50;5100890;28;20466;-62
2021/04/30 05:47:27;;;;;;;37.33;29.23;;;;;;;11.62;62.92;99911.34;5100955;28;20819;-62
2021/04/30 05:49:54;;;;;;;34.63;29.33;;;;;;;11.97;61.98;99909.59;5099791;28;20524;-63
2021/04/30 05:52:20;;;;;;;37.07;30.10;;;;;;;11.99;62.21;99912.94;5100175;28;20486;-61
2021/04/30 05:54:47;;;;;;;33.10;26.60;;;;;;;11.68;63.02;99915.22;5100467;28;20458;-62
2021/04/30 05:57:13;;;;;;;33.43;26.33;;;;;;;11.93;62.85;99926.16;5096968;28;20553;-61
2021/04/30 05:59:39;;;;;;;29.67;23.97;;;;;;;12.31;63.41;99924.88;5100545;28;20484;-62
2021/04/30 06:02:05;;;;;;;33.37;28.87;;;;;;;12.72;59.59;99924.19;5099385;28;20489;-62
2021/04/30 06:04:31;;;;;;;31.80;25.70;;;;;;;12.57;60.79;99934.72;5097373;28;20446;-62
2021/04/30 06:06:59;;;;;;;31.53;25.87;;;;;;;12.52;60.35;99926.31;5099790;28;20467;-62
2021/04/30 06:09:25;;;;;;;34.67;29.00;;;;;;;12.71;59.49;99926.03;5098398;28;20450;-62
2021/04/30 06:11:52;;;;;;;29.13;25.90;;;;;;;12.66;59.82;99922.19;5087712;28;21027;-63
2021/04/30 06:14:19;;;;;;;33.27;27.87;;;;;;;12.34;60.97;99927.25;5088539;28;20451;-61
2021/04/30 06:16:46;;;;;;;31.80;26.53;;;;;;;12.29;60.98;99929.56;5089553;28;20920;-63
2021/04/30 06:19:12;;;;;;;32.17;24.37;;;;;;;12.43;60.90;99920.91;5097148;28;20458;-63
2021/04/30 06:21:38;;;;;;;32.13;27.97;;;;;;;12.84;59.37;99922.06;5098296;28;20482;-63
2021/04/30 06:24:05;;;;;;;33.43;27.40;;;;;;;12.82;58.60;99923.03;5099998;28;20454;-62
2021/04/30 06:26:32;;;;;;;33.23;28.57;;;;;;;12.92;58.22;99919.41;5101439;28;20482;-62
2021/04/30 06:29:00;;;;;;;31.30;27.37;;;;;;;13.01;58.26;99929.13;5103699;28;20455;-63
2021/04/30 06:31:26;;;;;;;33.37;26.20;;;;;;;12.87;57.42;99921.72;5088970;28;20480;-62
2021/04/30 06:33:52;;;;;;;30.13;25.60;;;;;;;12.88;58.41;99924.25;5092817;28;20447;-63
2021/04/30 06:36:19;;;;;;;31.53;26.30;;;;;;;13.00;58.57;99927.44;5098209;28;21007;-63
2021/04/30 06:38:47;;;;;;;33.07;26.83;;;;;;;13.00;58.81;99924.75;5089434;28;20630;-65
2021/04/30 06:41:14;;;;;;;33.23;28.00;;;;;;;12.85;59.59;99935.31;5079072;28;20475;-63
2021/04/30 06:43:40;;;;;;;34.13;28.17;;;;;;;12.97;59.16;99927.81;5096369;28;20446;-63
2021/04/30 06:46:07;;;;;;;32.97;27.33;;;;;;;12.88;60.29;99931.44;5102813;28;20477;-64
2021/04/30 06:48:34;;;;;;;32.83;27.87;;;;;;;12.25;60.68;99941.56;5101244;28;20535;-64
2021/04/30 06:51:00;;;;;;;29.90;26.37;;;;;;;12.48;60.45;99931.16;5103256;28;20463;-64
2021/04/30 06:53:26;;;;;;;31.70;27.97;;;;;;;13.00;59.61;99927.44;5097617;28;20462;-61
2021/04/30 06:55:53;;;;;;;31.27;27.00;;;;;;;13.18;58.37;99922.78;5098949;28;20466;-63
2021/04/30 06:58:19;;;;;;;34.23;29.00;;;;;;;13.21;57.57;99935.06;5097325;28;20901;-63
2021/04/30 07:00:45;;;;;;;32.67;27.13;;;;;;;13.25;57.60;99941.78;5101357;28;20752;-63
2021/04/30 07:03:12;;;;;;;29.67;25.57;;;;;;;13.41;57.52;99946.34;5090837;28;20451;-64
2021/04/30 07:05:39;;;;;;;30.10;26.87;;;;;;;13.83;56.55;99948.00;5081223;28;20972;-65
2021/04/30 07:08:05;;;;;;;32.17;27.00;;;;;;;14.08;56.23;99942.63;5095265;28;20451;-64
2021/04/30 07:10:32;;;;;;;31.63;26.20;;;;;;;14.39;54.82;99947.25;5102365;28;20481;-63
2021/04/30 07:12:58;;;;;;;29.83;24.27;;;;;;;14.75;53.95;99944.13;5103641;28;20508;-63
2021/04/30 07:15:25;;;;;;;29.90;24.67;;;;;;;15.41;51.99;99945.38;5092776;28;20482;-64
2021/04/30 07:17:51;;;;;;;30.03;23.80;;;;;;;15.97;49.83;99949.69;5100944;28;20476;-65
2021/04/30 07:20:18;;;;;;;25.87;22.80;;;;;;;17.80;45.89;99940.69;5100280;28;20475;-63
2021/04/30 07:22:45;;;;;;;25.00;22.30;;;;;;;19.09;42.28;99949.41;5101353;28;20489;-62
2021/04/30 07:25:11;;;;;;;24.70;22.10;;;;;;;18.25;43.27;99946.69;5097699;28;20452;-64
2021/04/30 07:27:37;;;;;;;23.60;21.30;;;;;;;16.48;47.03;99952.53;5085701;28;20455;-64
2021/04/30 07:30:04;;;;;;;24.40;22.00;;;;;;;16.21;48.38;99947.78;5099908;28;20489;-64
2021/04/30 07:32:31;;;;;;;25.13;22.53;;;;;;;15.84;49.46;99954.88;5099583;28;21116;-63
2021/04/30 07:34:57;;;;;;;27.90;23.90;;;;;;;15.39;51.06;99944.75;5101114;28;20455;-63
2021/04/30 07:37:25;;;;;;;26.43;23.57;;;;;;;15.31;50.90;99960.97;5100632;28;20759;-64
2021/04/30 07:39:51;;;;;;;26.67;23.93;;;;;;;15.03;51.01;99960.63;5090762;28;20471;-65
2021/04/30 07:42:17;;;;;;;26.17;23.33;;;;;;;15.05;51.75;99966.66;5082124;28;20486;-65
2021/04/30 07:44:44;;;;;;;27.67;24.77;;;;;;;15.15;50.95;99964.59;5101151;28;20840;-63
2021/04/30 07:47:10;;;;;;;27.70;23.80;;;;;;;15.21;51.44;99968.44;5106945;28;21071;-64
2021/04/30 07:49:36;;;;;;;25.50;22.50;;;;;;;14.56;52.28;99961.47;5100016;28;20449;-64
2021/04/30 07:52:03;;;;;;;26.73;23.57;;;;;;;14.18;53.06;99967.44;5091739;28;20472;-64
2021/04/30 07:54:30;;;;;;;26.20;23.40;;;;;;;14.22;53.15;99968.81;5095617;28;21020;-64
2021/04/30 07:56:57;;;;;;;26.13;23.30;;;;;;;14.39;52.99;99963.38;5098003;28;20479;-64
2021/04/30 07:59:23;;;;;;;26.67;23.87;;;;;;;14.56;52.59;99972.25;5094925;28;20440;-63
2021/04/30 08:01:49;;;;;;;29.10;24.27;;;;;;;14.34;52.31;99977.38;5098396;28;20470;-66
2021/04/30 08:04:16;;;;;;;30.73;24.07;;;;;;;14.30;53.15;99979.56;5086878;28;20451;-66
2021/04/30 08:06:42;;;;;;;31.77;26.80;;;;;;;13.99;53.71;99975.88;5088930;28;20467;-66
2021/04/30 08:09:09;;;;;;;33.60;25.67;;;;;;;13.72;54.28;99967.19;5088782;28;20455;-66
2021/04/30 08:11:36;;;;;;;29.67;25.53;;;;;;;13.43;55.67;99981.91;5097731;28;20477;-66
2021/04/30 08:14:06;;;;;;;30.93;26.17;;;;;;;13.52;55.95;99974.72;5099589;28;20462;-66
2021/04/30 08:16:32;;;;;;;34.17;26.40;;;;;;;13.68;56.02;99974.75;5097946;28;21034;-64
2021/04/30 08:19:00;;;;;;;32.13;25.83;;;;;;;13.78;55.21;99981.78;5098993;28;20912;-64
2021/04/30 08:21:26;;;;;;;30.07;26.13;;;;;;;13.81;54.90;99987.66;5078772;28;20571;-65
2021/04/30 08:23:52;;;;;;;31.20;26.40;;;;;;;13.85;54.83;99986.34;5095167;28;20447;-67
2021/04/30 08:26:19;;;;;;;32.60;26.43;;;;;;;13.48;55.73;99981.44;5098844;28;20498;-64
2021/04/30 08:28:46;;;;;;;36.67;26.43;;;;;;;13.50;55.70;99991.00;5096511;28;20467;-66
2021/04/30 08:31:12;;;;;;;30.37;26.90;;;;;;;13.84;55.94;99992.69;5066759;28;20492;-65
2021/04/30 08:33:38;;;;;;;29.80;25.77;;;;;;;14.01;54.51;99992.69;5079451;28;20452;-65
2021/04/30 08:36:05;;;;;;;36.47;28.23;;;;;;;13.94;54.55;99989.84;5079694;28;20487;-65
2021/04/30 08:38:32;;;;;;;29.50;25.27;;;;;;;13.88;54.17;99996.72;5078120;28;20459;-65
2021/04/30 08:40:58;;;;;;;30.70;26.70;;;;;;;14.27;54.66;99989.81;5078174;28;20471;-64
2021/04/30 08:43:24;;;;;;;32.43;26.23;;;;;;;14.66;52.95;99991.75;5078826;28;20471;-66
2021/04/30 08:45:54;;;;;;;32.13;25.53;;;;;;;14.21;52.09;99988.63;5078713;28;20472;-67
2021/04/30 08:48:21;;;;;;;30.70;26.67;;;;;;;14.09;54.57;99993.50;5088798;28;20495;-62
2021/04/30 08:50:48;;;;;;;31.63;28.23;;;;;;;14.69;51.54;99988.72;5077995;28;20468;-66
2021/04/30 08:53:14;;;;;;;32.57;26.60;;;;;;;14.88;51.86;99988.28;5076813;28;20543;-65
2021/04/30 08:55:41;;;;;;;30.77;26.23;;;;;;;14.45;53.07;99989.59;5078017;28;20542;-66
2021/04/30 08:58:09;;;;;;;31.60;26.10;;;;;;;14.37;53.38;99992.31;5079250;28;20969;-66
2021/04/30 09:00:36;;;;;;;29.07;25.83;;;;;;;13.91;54.63;99996.41;5077847;28;20464;-64
2021/04/30 09:03:04;;;;;;;29.10;25.17;;;;;;;14.76;52.61;99996.94;5078754;28;20535;-66
2021/04/30 09:05:31;;;;;;;32.43;25.50;;;;;;;14.88;51.63;99999.06;5078521;28;20467;-67
2021/04/30 09:07:59;;;;;;;30.37;23.93;;;;;;;14.54;52.06;99990.41;5076979;28;20481;-65
2021/04/30 09:10:26;;;;;;;29.23;26.10;;;;;;;14.97;51.50;99989.09;5077172;28;20451;-67
2021/04/30 09:13:04;;;;;;;29.37;23.17;;;;;;;14.60;52.56;99989.75;5073088;28;20457;-65
2021/04/30 09:15:30;;;;;;;31.73;26.47;;;;;;;14.66;51.48;99989.06;5076739;28;20475;-65
2021/04/30 09:18:24;;;;;;;28.37;25.13;;;;;;;14.69;52.36;99992.25;5075252;28;20594;-66
2021/04/30 09:20:51;;;;;;;29.37;24.70;;;;;;;14.49;51.47;99991.78;5058227;28;20548;-66
2021/04/30 09:23:34;;;;;;;27.07;23.90;;;;;;;14.80;51.06;99998.25;5058533;28;20460;-66
2021/04/30 09:26:01;;;;;;;29.37;26.13;;;;;;;15.37;49.16;100000.66;5068357;28;21022;-67
2021/04/30 09:28:28;;;;;;;25.90;22.90;;;;;;;15.57;49.55;100005.56;5078517;28;20490;-66
2021/04/30 09:30:54;;;;;;;30.40;24.30;;;;;;;15.35;50.37;100000.00;5090475;28;20475;-66
2021/04/30 09:33:23;;;;;;;30.80;24.43;;;;;;;15.90;48.32;100005.34;5078847;28;20452;-67
2021/04/30 09:35:51;;;;;;;26.37;23.57;;;;;;;15.82;48.92;100001.72;5077693;28;20521;-64
2021/04/30 09:38:26;;;;;;;30.77;24.93;;;;;;;15.67;48.35;100003.47;5069077;28;20460;-67
2021/04/30 09:41:06;;;;;;;31.40;25.13;;;;;;;14.68;50.06;100005.88;5060676;28;20476;-66
2021/04/30 09:43:50;;;;;;;27.17;24.23;;;;;;;15.35;50.03;100009.94;5087325;28;20456;-66
2021/04/30 09:46:27;;;;;;;26.50;23.70;;;;;;;14.53;50.75;100016.47;5076961;28;20493;-66
2021/04/30 09:48:59;;;;;;;28.10;24.07;;;;;;;14.41;51.48;100017.84;5079348;28;20431;-65
2021/04/30 09:51:46;;;;;;;26.63;22.93;;;;;;;14.20;51.88;100019.22;5063747;28;20551;-65
2021/04/30 09:54:17;;;;;;;26.60;23.80;;;;;;;14.92;50.26;100022.94;5063877;28;20449;-67
2021/04/30 09:56:43;;;;;;;25.77;23.07;;;;;;;14.64;49.36;100018.00;5057643;28;20507;-66
2021/04/30 09:59:10;;;;;;;27.37;24.27;;;;;;;14.83;50.90;100024.81;5075784;28;20440;-66
2021/04/30 10:01:36;;;;;;;25.63;22.63;;;;;;;15.32;48.83;100015.69;5076650;28;20467;-64
2021/04/30 10:04:04;;;;;;;25.83;22.60;;;;;;;14.75;49.46;100020.28;5061402;28;20506;-66
2021/04/30 10:06:31;;;;;;;25.70;22.90;;;;;;;15.01;49.40;100017.34;5059877;28;20483;-62
2021/04/30 10:09:04;;;;;;;25.67;22.97;;;;;;;15.07;48.82;100021.19;5073997;28;20486;-65
2021/04/30 10:11:32;;;;;;;30.63;24.47;;;;;;;15.50;47.83;100010.84;5068555;28;20475;-66
2021/04/30 10:13:59;;;;;;;27.57;23.90;;;;;;;15.19;48.50;100010.84;5075228;28;20896;-66
2021/04/30 10:16:26;;;;;;;28.60;24.37;;;;;;;13.80;52.79;100015.56;5086190;28;20479;-66
2021/04/30 10:18:52;;;;;;;29.87;24.63;;;;;;;14.17;52.14;100008.81;5091182;28;20459;-65
2021/04/30 10:21:20;;;;;;;28.70;23.67;;;;;;;14.84;50.48;100015.72;5102228;28;20481;-66
2021/04/30 10:23:48;;;;;;;30.37;24.70;;;;;;;13.70;52.82;100013.00;5102354;28;20462;-65
2021/04/30 10:26:16;;;;;;;28.23;24.97;;;;;;;14.39;52.01;100009.09;5102493;28;20467;-66
2021/04/30 10:28:44;;;;;;;28.33;25.53;;;;;;;13.86;53.33;100014.88;5078941;28;20483;-66
2021/04/30 10:31:13;;;;;;;33.40;25.30;;;;;;;14.56;51.92;100013.44;5101141;28;20546;-65
2021/04/30 10:33:43;;;;;;;28.37;24.83;;;;;;;14.48;51.48;100019.69;5102832;28;20555;-65
2021/04/30 10:36:14;;;;;;;26.77;23.97;;;;;;;14.02;51.57;100023.94;5101518;28;21365;-65
2021/04/30 10:38:44;;;;;;;25.80;23.03;;;;;;;13.92;52.91;100024.09;5101508;28;20447;-64
2021/04/30 10:41:10;;;;;;;29.30;24.40;;;;;;;14.26;51.50;100021.22;5082635;28;20506;-65
2021/04/30 10:43:39;;;;;;;27.23;24.33;;;;;;;13.77;53.42;100017.75;5094294;28;20477;-65
2021/04/30 10:46:08;;;;;;;29.90;25.70;;;;;;;14.02;51.80;100026.63;5100775;28;20467;-65
2021/04/30 10:48:40;;;;;;;34.57;24.07;;;;;;;13.95;52.16;100021.09;5122905;28;20434;-65
2021/04/30 10:51:12;;;;;;;30.50;23.50;;;;;;;13.84;52.79;100024.13;5122321;28;20465;-65
2021/04/30 10:53:39;;;;;;;30.57;24.67;;;;;;;13.71;53.65;100027.28;5100871;28;20479;-65
2021/04/30 10:56:27;;;;;;;27.47;24.50;;;;;;;13.80;53.55;100033.50;5092131;28;20984;-65
2021/04/30 10:58:54;;;;;;;30.83;24.63;;;;;;;13.50;53.92;100030.44;5102042;28;20481;-65
2021/04/30 11:01:28;;;;;;;27.87;24.97;;;;;;;13.66;54.15;100029.63;5099580;28;20486;-64
2021/04/30 11:04:18;;;;;;;28.00;25.00;;;;;;;14.17;53.33;100032.19;5099692;28;20528;-64
2021/04/30 11:06:47;;;;;;;27.83;24.70;;;;;;;13.56;54.23;100038.69;5099548;28;20504;-64
2021/04/30 11:09:16;;;;;;;29.23;23.67;;;;;;;13.90;53.18;100029.63;5092754;28;20488;-64
2021/04/30 11:11:44;;;;;;;29.40;25.10;;;;;;;13.43;53.71;100029.44;5095742;28;20482;-64
2021/04/30 11:14:41;;;;;;;30.20;24.43;;;;;;;13.66;54.09;100035.00;5100022;28;20443;-64
2021/04/30 11:17:07;;;;;;;29.83;25.10;;;;;;;13.64;53.71;100029.78;5100488;28;20497;-64